world map with NGFU marked

NGFU - Airport

This information may not be accurate or current and is not valid for navigation or flight planning. No warranty of fitness for any purpose is made or implied.

flag of Tuvalu

Donate via PayPal

Additional information is available on the NEW Great Circle Mapper

Location
City:  Funafuti Atoll, Tuvalu
Name:Funafuti Atoll International Airport
ICAO / IATA:NGFU / FUN

Details
Type:Airport (Aerodrome, Airfield)
Latitude:8°31'30"S (-8.524999)
Longitude:179°11'47"E (179.196389)
Elevation:9 ft (3 m)
Runways:1
Longest:5000 ft (1524 m)

Time
Timezone:UTC+12 (DST+14)
Local Time:

Weather
METAR:NGFU  132200Z 03006KT 9999 SCT020 32/25 Q1008
TAF:NGFU  131724Z 1318/1418 02008KT 9999 SCT020

Related Locations
Nearby:
Farthest:DGAE: 12366 mi / 19902 km
Kete-Krachi, GH

Find:

   beyond  
but within

Other Information
Maps:
Sources:

  


 


Great Circle Mapper   Great Circle Mapper
Great Circle Mapper FAQ   Great Circle Mapper FAQ
  Karl's Home Page
KLSē   KLSē Home
   GC on Facebook
Airlines of the World   Airlines of the World
Donate via PayPal


Copyright © 2004-2018, Karl L. Swartz. All rights reserved.
All trademarks mentioned herein belong to their respective owners.

Please see credits for attribution and copyright information.

Karl Swartz <karl@kls2.com>
  Powered by FreeBSD
Valid HTML 4.01!
Labeled with ICRA
hCard Microformat
Geo Microformat